Welcome!

Visit our other weather sites:

Template documentation
and downloads

And another site



There are no active watches, warnings or advisories

Nearby METAR Reports

   
KAVP - Albrightsville, PA
Updated: Sep 18 2018 11:31 pm
Mostly Cloudy  
Mostly Cloudy  
   Wind: Calm
Wind: Calm
Temperature: 66.2°F
Dew Point: 64.4°F
Humidity: 94%
Barometer: 29.87 inHg
Clouds: Mostly Cloudy
Visibility: 8 mi
Cloud details: Few Clouds 793 m,
Partly Cloudy 1036 m,
Mostly Cloudy 1341 m
KAVP 190431Z 00000KT 8SM FEW026 SCT034 BKN044 19/18 A2987 RMK AO2 T01890183
KIWA - Apache Junction, AZ
Updated: Sep 18 2018 10:47 pm
Partly Cloudy  
Partly Cloudy  
   Wind: WSW 5.8 mph
Wind: WSW 5.8 mph
Temperature: 93.2°F
Dew Point: 57.2°F
Humidity: 30%
Barometer: 29.75 inHg
Clouds: Partly Cloudy
Visibility: 20 mi
Cloud details: Partly Cloudy 7620 m
KIWA 190347Z 24005KT 20SM SCT250 34/14 A2975
KPKB - Blue Rock, OH
Updated: Sep 18 2018 10:53 pm
Mist, Clear  
Mist, Clear  
   Wind: Calm
Wind: Calm
Temperature: 69.8°F
Dew Point: 66.2°F
Humidity: 88%
Barometer: 29.98 inHg
Clouds: Clear
Visibility: 5 mi
Cloud details: Clear
KPKB 190353Z AUTO 00000KT 5SM BR CLR 21/19 A2998 RMK AO2 SLP145 T02060194
KHVN - Branford, CT
Updated: Sep 18 2018 11:24 pm
Mist, Overcast  
Mist, Overcast  
   Wind: Calm
Wind: Calm
Temperature: 66.2°F
Dew Point: 66.2°F
Humidity: 100%
Barometer: 29.77 inHg
Clouds: Overcast
Visibility: 3 mi
Cloud details: Overcast 91 m
KHVN 190424Z AUTO 00000KT 3/4SM R02/3000VP6000FT BR VV003 19/19 A2977 RMK AO2 T01890189
KPHX - Carefree, AZ
Updated: Sep 18 2018 10:51 pm
Partly Cloudy  
Partly Cloudy  
   Wind: SW 5.8 mph
Wind: SW 5.8 mph
Temperature: 95°F
Dew Point: 59°F
Humidity: 30%
Barometer: 29.7 inHg
Clouds: Partly Cloudy
Visibility: 10 mi
Cloud details: Few Clouds 3658 m,
Partly Cloudy 5182 m,
Partly Cloudy 7620 m
KPHX 190351Z 22005KT 10SM FEW120 SCT170 SCT250 35/15 A2970 RMK AO2 SLP035 T03500150
 

Script developed by  Saratoga-weather.org Adapted for the template by  Weerstation Leuven